createdAt,value
2018-03-20T00:00:59.653Z,7.20
2018-03-20T00:03:27.915Z,10.70
2018-03-20T00:05:56.186Z,12.03
2018-03-20T00:08:24.452Z,13.80
2018-03-20T00:10:52.738Z,11.83
2018-03-20T00:13:21.020Z,9.17
2018-03-20T00:15:49.278Z,15.63
2018-03-20T00:18:17.550Z,15.63
2018-03-20T00:20:45.819Z,12.93
2018-03-20T00:23:14.098Z,13.20
2018-03-20T00:25:42.359Z,16.23
2018-03-20T00:28:10.638Z,14.50
2018-03-20T00:30:38.907Z,11.07
2018-03-20T00:33:07.171Z,14.20
2018-03-20T00:35:35.440Z,13.03
2018-03-20T00:38:03.710Z,10.67
2018-03-20T00:40:31.987Z,14.23
2018-03-20T00:43:00.279Z,11.30
2018-03-20T00:45:28.544Z,12.53
2018-03-20T00:47:56.874Z,7.17
2018-03-20T00:50:25.158Z,12.67
2018-03-20T00:52:53.421Z,9.40
2018-03-20T00:55:21.690Z,7.43
2018-03-20T00:57:49.963Z,12.53
2018-03-20T01:00:18.220Z,10.90
2018-03-20T01:02:46.490Z,10.40
2018-03-20T01:05:14.766Z,11.57
2018-03-20T01:07:43.035Z,12.67
2018-03-20T01:10:11.298Z,13.87
2018-03-20T01:12:39.554Z,9.37
2018-03-20T01:15:07.818Z,10.03
2018-03-20T01:17:36.140Z,10.03
2018-03-20T01:20:04.363Z,14.10
2018-03-20T01:22:32.630Z,11.03
2018-03-20T01:25:00.914Z,14.33
2018-03-20T01:27:29.183Z,8.70
2018-03-20T01:29:57.444Z,15.80
2018-03-20T01:32:25.719Z,9.63
2018-03-20T01:34:53.973Z,15.47
2018-03-20T01:37:22.241Z,8.63
2018-03-20T01:39:50.506Z,14.67
2018-03-20T01:42:20.670Z,12.83
2018-03-20T01:44:48.947Z,11.07
2018-03-20T01:47:17.218Z,11.17
2018-03-20T01:49:45.478Z,7.93
2018-03-20T01:52:13.747Z,10.40
2018-03-20T01:54:42.019Z,11.20
2018-03-20T01:57:10.287Z,10.87
2018-03-20T01:59:38.551Z,10.30
2018-03-20T02:02:06.835Z,12.13
2018-03-20T02:04:35.103Z,11.10
2018-03-20T02:07:03.371Z,8.53
2018-03-20T02:09:31.643Z,11.13
2018-03-20T02:11:59.902Z,9.37
2018-03-20T02:14:28.178Z,12.00
2018-03-20T02:16:56.443Z,9.43
2018-03-20T02:19:24.699Z,9.10
2018-03-20T02:21:52.986Z,10.23
2018-03-20T02:24:21.246Z,12.47
2018-03-20T02:26:49.814Z,11.13
2018-03-20T02:29:18.075Z,8.87
2018-03-20T02:31:46.391Z,8.23
2018-03-20T02:34:14.654Z,10.40
2018-03-20T02:36:42.923Z,10.43
2018-03-20T02:39:11.567Z,10.27
2018-03-20T02:41:39.841Z,12.37
2018-03-20T02:44:08.099Z,9.93
2018-03-20T02:46:37.294Z,11.43
2018-03-20T02:49:05.566Z,11.70
2018-03-20T02:51:33.843Z,13.07
2018-03-20T02:54:02.123Z,10.50
2018-03-20T02:56:30.375Z,10.90
2018-03-20T02:59:02.242Z,8.93
2018-03-20T03:01:30.511Z,11.13
2018-03-20T03:03:58.780Z,11.90
2018-03-20T03:06:27.046Z,12.43
2018-03-20T03:08:55.315Z,10.43
2018-03-20T03:11:23.585Z,7.97
2018-03-20T03:13:51.847Z,10.77
2018-03-20T03:16:20.122Z,10.87
2018-03-20T03:18:48.384Z,10.67
2018-03-20T03:21:16.655Z,10.17
2018-03-20T03:23:44.936Z,11.10
2018-03-20T03:26:13.209Z,9.87
2018-03-20T03:28:41.482Z,10.93
2018-03-20T03:31:09.748Z,11.57
2018-03-20T03:33:38.023Z,9.80
2018-03-20T03:36:06.286Z,9.67
2018-03-20T03:38:34.546Z,9.43
2018-03-20T03:41:02.819Z,10.90
2018-03-20T03:43:31.083Z,8.10
2018-03-20T03:45:59.344Z,10.83
2018-03-20T03:48:27.605Z,5.80
2018-03-20T03:50:55.862Z,13.03
2018-03-20T03:53:24.128Z,9.13
2018-03-20T03:55:52.398Z,13.10
2018-03-20T03:58:20.664Z,15.83
2018-03-20T04:00:48.940Z,14.50
2018-03-20T04:03:17.194Z,9.10
2018-03-20T04:05:45.494Z,13.90
2018-03-20T04:08:13.758Z,11.13
2018-03-20T04:10:42.027Z,10.47
2018-03-20T04:13:10.300Z,13.70
2018-03-20T04:15:38.571Z,11.37
2018-03-20T04:18:06.869Z,11.67
2018-03-20T04:20:35.118Z,7.53
2018-03-20T04:23:03.383Z,11.20
2018-03-20T04:25:31.659Z,11.57
2018-03-20T04:27:59.927Z,12.57
2018-03-20T04:30:28.211Z,10.13
2018-03-20T04:32:56.478Z,10.27
2018-03-20T04:35:24.739Z,9.43
2018-03-20T04:37:53.023Z,14.13
2018-03-20T04:40:21.286Z,15.50
2018-03-20T04:42:49.563Z,12.40
2018-03-20T04:45:17.829Z,13.33
2018-03-20T04:47:46.618Z,11.63
2018-03-20T04:50:14.895Z,12.80
2018-03-20T04:52:43.149Z,12.77
2018-03-20T04:55:11.422Z,8.90
2018-03-20T04:57:39.687Z,13.73
2018-03-20T05:00:07.946Z,18.10
2018-03-20T05:02:36.219Z,16.07
2018-03-20T05:05:04.487Z,14.90
2018-03-20T05:07:32.754Z,13.90
2018-03-20T05:10:01.019Z,11.20
2018-03-20T05:12:29.283Z,16.30
2018-03-20T05:14:57.554Z,11.33
2018-03-20T05:17:25.814Z,15.83
2018-03-20T05:19:59.976Z,15.50
2018-03-20T05:22:33.958Z,12.70
2018-03-20T05:25:02.551Z,15.97
2018-03-20T05:27:30.819Z,12.97
2018-03-20T05:29:59.082Z,10.13
2018-03-20T05:32:27.363Z,13.07
2018-03-20T05:34:55.636Z,13.27
2018-03-20T05:37:23.910Z,15.43
2018-03-20T05:39:52.178Z,11.63
2018-03-20T05:42:20.450Z,10.93
2018-03-20T05:44:48.738Z,8.80
2018-03-20T05:47:17.350Z,15.00
2018-03-20T05:52:57.446Z,14.50
2018-03-20T05:55:25.715Z,14.83
2018-03-20T05:58:05.470Z,15.50
2018-03-20T06:00:33.745Z,16.17
2018-03-20T06:03:18.657Z,14.47
2018-03-20T06:05:46.934Z,17.40
2018-03-20T06:08:15.199Z,16.53
2018-03-20T06:10:43.462Z,15.23
2018-03-20T06:13:11.740Z,17.13
2018-03-20T06:15:40.009Z,14.67
2018-03-20T06:18:08.295Z,19.33
2018-03-20T06:20:36.558Z,14.47
2018-03-20T06:23:04.827Z,13.23
2018-03-20T06:25:33.186Z,13.40
2018-03-20T06:28:01.452Z,14.60
2018-03-20T06:30:29.714Z,14.53
2018-03-20T06:32:57.995Z,14.10
2018-03-20T06:35:26.271Z,20.00
2018-03-20T06:37:54.539Z,15.27
2018-03-20T06:40:22.812Z,15.63
2018-03-20T06:42:51.108Z,15.90
2018-03-20T06:45:19.374Z,14.60
2018-03-20T06:47:47.794Z,12.90
2018-03-20T06:50:16.068Z,15.77
2018-03-20T06:52:44.356Z,12.00
2018-03-20T06:55:32.453Z,14.60
2018-03-20T06:58:00.722Z,15.13
2018-03-20T07:00:28.990Z,13.33
2018-03-20T07:02:57.262Z,13.63
2018-03-20T07:05:25.524Z,11.47
2018-03-20T07:07:53.798Z,16.73
2018-03-20T07:10:22.063Z,13.63
2018-03-20T07:12:50.334Z,14.27
2018-03-20T07:15:18.614Z,16.20
2018-03-20T07:17:46.875Z,14.93
2018-03-20T07:20:15.155Z,16.10
2018-03-20T07:22:43.419Z,15.53
2018-03-20T07:25:11.682Z,14.50
2018-03-20T07:27:39.952Z,12.93
2018-03-20T07:30:08.211Z,19.87
2018-03-20T07:32:36.482Z,21.37
2018-03-20T07:35:04.759Z,17.90
2018-03-20T07:37:33.024Z,18.47
2018-03-20T07:40:01.303Z,13.10
2018-03-20T07:42:29.562Z,23.27
2018-03-20T07:44:57.847Z,17.23
2018-03-20T07:47:26.119Z,16.30
2018-03-20T07:49:54.388Z,15.93
2018-03-20T07:52:22.681Z,15.27
2018-03-20T07:54:50.930Z,16.47
2018-03-20T07:57:19.231Z,14.43
2018-03-20T07:59:47.499Z,16.67
2018-03-20T08:02:15.771Z,13.10
2018-03-20T08:04:44.043Z,16.87
2018-03-20T08:07:12.323Z,15.83
2018-03-20T08:09:40.603Z,17.73
2018-03-20T08:12:08.875Z,16.20
2018-03-20T08:14:37.167Z,18.13
2018-03-20T08:17:05.447Z,16.53
2018-03-20T08:19:33.772Z,18.07
2018-03-20T08:22:02.078Z,21.37
2018-03-20T08:24:30.348Z,16.20
2018-03-20T08:26:58.636Z,26.57
2018-03-20T08:29:26.923Z,18.83
2018-03-20T08:31:55.187Z,16.37
2018-03-20T08:34:23.804Z,19.77
2018-03-20T08:36:52.079Z,24.87
2018-03-20T08:39:20.360Z,22.37
2018-03-20T08:41:48.624Z,15.83
2018-03-20T08:44:16.895Z,19.63
2018-03-20T08:46:45.178Z,19.90
2018-03-20T08:49:13.459Z,26.90
2018-03-20T08:51:41.722Z,18.87
2018-03-20T08:54:10.203Z,29.80
2018-03-20T08:56:38.474Z,23.20
2018-03-20T08:59:06.759Z,26.27
2018-03-20T09:01:35.035Z,33.20
2018-03-20T09:04:03.307Z,30.00
2018-03-20T09:06:31.592Z,25.83
2018-03-20T09:08:59.862Z,33.27
2018-03-20T09:11:28.169Z,31.10
2018-03-20T09:13:56.438Z,33.63
2018-03-20T09:16:24.711Z,35.53
2018-03-20T09:21:47.519Z,34.17
2018-03-20T09:24:15.799Z,36.10
2018-03-20T09:26:44.075Z,34.77
2018-03-20T09:29:12.350Z,34.17
2018-03-20T09:31:40.644Z,36.63
2018-03-20T09:34:08.911Z,34.73
2018-03-20T09:36:37.200Z,28.63
2018-03-20T09:39:05.475Z,35.70
2018-03-20T09:41:33.922Z,44.83
2018-03-20T09:44:02.206Z,41.73
2018-03-20T09:46:30.503Z,41.10
2018-03-20T09:48:58.841Z,35.83
2018-03-20T09:51:27.059Z,40.23
2018-03-20T09:53:55.644Z,42.30
2018-03-20T09:56:23.919Z,36.73
2018-03-20T09:58:52.184Z,45.30
2018-03-20T10:01:20.471Z,30.83
2018-03-20T10:03:48.739Z,35.70
2018-03-20T10:06:17.051Z,39.17
2018-03-20T10:08:45.326Z,42.93
2018-03-20T10:11:13.598Z,47.50
2018-03-20T10:13:41.879Z,35.17
2018-03-20T10:16:10.154Z,48.83
2018-03-20T10:18:38.468Z,47.47
2018-03-20T10:21:06.736Z,43.60
2018-03-20T10:23:35.010Z,37.00
2018-03-20T10:26:03.290Z,40.00
2018-03-20T10:28:31.564Z,39.37
2018-03-20T10:30:59.831Z,33.60
2018-03-20T10:33:28.109Z,40.33
2018-03-20T10:35:56.398Z,42.37
2018-03-20T10:38:24.750Z,31.50
2018-03-20T10:40:52.967Z,33.17
2018-03-20T10:43:21.239Z,38.23
2018-03-20T10:45:51.446Z,36.47
2018-03-20T10:48:19.731Z,35.53
2018-03-20T10:50:49.320Z,37.53
2018-03-20T10:53:19.585Z,27.70
2018-03-20T10:55:51.894Z,30.07
2018-03-20T10:58:20.178Z,34.10
2018-03-20T11:00:48.932Z,26.97
2018-03-20T11:03:17.214Z,29.30
2018-03-20T11:05:45.490Z,29.80
2018-03-20T11:08:13.776Z,25.30
2018-03-20T11:10:43.064Z,19.67
2018-03-20T11:13:11.331Z,21.13
2018-03-20T11:15:39.635Z,30.97
2018-03-20T11:18:07.921Z,22.03
2018-03-20T11:20:36.222Z,25.47
2018-03-20T11:23:04.514Z,27.33
2018-03-20T11:25:32.776Z,23.90
2018-03-20T11:28:01.061Z,19.47
2018-03-20T11:30:29.326Z,17.07
2018-03-20T11:32:57.628Z,19.40
2018-03-20T11:35:25.888Z,18.27
2018-03-20T11:37:54.159Z,21.23
2018-03-20T11:40:22.551Z,14.53
2018-03-20T11:42:51.913Z,18.90
2018-03-20T11:45:20.205Z,14.60
2018-03-20T11:47:48.475Z,11.97
2018-03-20T11:50:16.755Z,10.30
2018-03-20T11:52:45.030Z,9.10
2018-03-20T11:55:13.295Z,6.70
2018-03-20T11:57:41.596Z,7.03
2018-03-20T12:00:09.887Z,7.97
2018-03-20T12:02:38.163Z,8.33
2018-03-20T12:05:07.551Z,7.73
2018-03-20T12:07:35.834Z,10.53
2018-03-20T12:10:04.103Z,7.27
2018-03-20T12:12:32.370Z,6.00
2018-03-20T12:15:00.639Z,8.10
2018-03-20T12:17:30.902Z,7.57
2018-03-20T12:20:00.047Z,8.37
2018-03-20T12:22:29.349Z,8.30
2018-03-20T12:24:58.566Z,5.97
2018-03-20T12:27:26.826Z,8.57
2018-03-20T12:29:55.118Z,7.17
2018-03-20T12:32:23.393Z,6.50
2018-03-20T12:34:51.655Z,8.23
2018-03-20T12:37:19.909Z,8.80
2018-03-20T12:39:48.171Z,8.80
2018-03-20T12:42:16.434Z,7.23
2018-03-20T12:44:49.588Z,6.53
2018-03-20T12:47:17.875Z,6.67
2018-03-20T12:49:46.128Z,6.73
2018-03-20T12:52:14.395Z,5.30
2018-03-20T12:54:52.439Z,3.87
2018-03-20T12:57:20.720Z,6.07
2018-03-20T12:59:48.983Z,4.77
2018-03-20T13:02:17.242Z,3.13
2018-03-20T13:04:46.851Z,4.93
2018-03-20T13:07:15.322Z,4.47
2018-03-20T13:09:51.061Z,4.60
2018-03-20T13:12:19.362Z,3.57
2018-03-20T13:14:47.630Z,3.77
2018-03-20T13:17:15.901Z,3.07
2018-03-20T13:19:44.169Z,2.77
2018-03-20T13:22:12.445Z,3.60
2018-03-20T13:24:41.706Z,3.13
2018-03-20T13:27:09.959Z,5.43
2018-03-20T13:29:40.218Z,3.77
2018-03-20T13:32:21.142Z,4.67
2018-03-20T13:34:51.430Z,2.37
2018-03-20T13:37:19.690Z,3.40
2018-03-20T13:39:48.021Z,2.77
2018-03-20T13:42:16.278Z,5.47
2018-03-20T13:44:44.539Z,5.57
2018-03-20T13:47:13.104Z,3.53
2018-03-20T13:49:41.367Z,3.27
2018-03-20T13:52:09.627Z,2.37
2018-03-20T13:54:37.895Z,6.10
2018-03-20T13:57:06.158Z,4.30
2018-03-20T13:59:34.442Z,3.90
2018-03-20T14:02:02.713Z,6.30
2018-03-20T14:04:30.989Z,5.17
2018-03-20T14:06:59.246Z,3.13
2018-03-20T14:09:27.508Z,4.07
2018-03-20T14:11:55.796Z,3.90
2018-03-20T14:14:37.207Z,1.50
2018-03-20T14:17:05.430Z,3.10
2018-03-20T14:19:39.243Z,3.10
2018-03-20T14:22:07.519Z,2.63
2018-03-20T14:24:35.784Z,2.13
2018-03-20T14:27:04.034Z,4.40
2018-03-20T14:29:32.311Z,2.97
2018-03-20T14:32:00.575Z,3.10
2018-03-20T14:34:29.815Z,4.23
2018-03-20T14:36:58.093Z,2.50
2018-03-20T14:39:26.358Z,2.40
2018-03-20T14:41:54.619Z,2.70
2018-03-20T14:44:22.883Z,4.27
2018-03-20T14:46:51.166Z,2.60
2018-03-20T14:49:20.359Z,3.90
2018-03-20T14:51:48.681Z,2.23
2018-03-20T14:54:16.938Z,4.73
2018-03-20T14:56:45.200Z,4.67
2018-03-20T14:59:31.116Z,3.57
2018-03-20T15:01:59.381Z,2.23
2018-03-20T15:04:27.638Z,2.73
2018-03-20T15:06:56.815Z,2.13
2018-03-20T15:09:37.567Z,3.40
2018-03-20T15:12:05.840Z,12.83
2018-03-20T15:14:36.013Z,10.50
2018-03-20T15:17:04.293Z,1.40
2018-03-20T15:19:32.562Z,4.07
2018-03-20T15:22:00.813Z,3.20
2018-03-20T15:24:29.087Z,1.47
2018-03-20T15:26:57.345Z,2.50
2018-03-20T15:29:25.891Z,2.97
2018-03-20T15:31:54.171Z,1.63
2018-03-20T15:34:32.543Z,2.67
2018-03-20T15:37:01.829Z,1.60
2018-03-20T15:39:30.044Z,2.40
2018-03-20T15:41:58.299Z,6.40
2018-03-20T15:44:26.564Z,1.37
2018-03-20T15:46:54.850Z,4.03
2018-03-20T15:49:23.118Z,2.50
2018-03-20T15:51:51.377Z,1.53
2018-03-20T15:54:19.655Z,4.20
2018-03-20T15:56:48.911Z,2.43
2018-03-20T15:59:17.178Z,3.33
2018-03-20T16:01:45.440Z,3.60
2018-03-20T16:04:13.704Z,1.20
2018-03-20T16:06:46.886Z,4.13
2018-03-20T16:09:25.378Z,1.00
2018-03-20T16:11:53.679Z,10.00
2018-03-20T16:14:21.951Z,1.43
2018-03-20T16:16:50.228Z,2.27
2018-03-20T16:19:18.501Z,5.07
2018-03-20T16:21:46.763Z,1.73
2018-03-20T16:24:15.038Z,1.47
2018-03-20T16:26:43.356Z,4.10
2018-03-20T16:29:17.436Z,1.93
2018-03-20T16:31:45.698Z,3.73
2018-03-20T16:34:13.974Z,3.80
2018-03-20T16:36:42.240Z,1.97
2018-03-20T16:39:10.510Z,2.40
2018-03-20T16:41:38.791Z,4.47
2018-03-20T16:44:07.047Z,1.20
2018-03-20T16:49:08.783Z,1.30
2018-03-20T16:51:37.039Z,3.77
2018-03-20T16:54:05.609Z,1.57
2018-03-20T16:56:33.863Z,1.60
2018-03-20T16:59:02.123Z,2.43
2018-03-20T17:01:30.386Z,2.30
2018-03-20T17:03:58.647Z,3.30
2018-03-20T17:06:26.950Z,6.17
2018-03-20T17:08:55.208Z,2.00
2018-03-20T17:11:23.464Z,4.83
2018-03-20T17:13:51.737Z,1.83
2018-03-20T17:16:20.001Z,5.80
2018-03-20T17:18:48.284Z,2.53
2018-03-20T17:21:16.540Z,1.43
2018-03-20T17:23:44.820Z,3.53
2018-03-20T17:26:13.087Z,2.23
2018-03-20T17:28:41.366Z,2.97
2018-03-20T17:31:09.693Z,3.57
2018-03-20T17:33:37.921Z,2.60
2018-03-20T17:36:06.175Z,4.40
2018-03-20T17:38:34.439Z,3.50
2018-03-20T17:41:02.702Z,1.93
2018-03-20T17:43:30.971Z,2.40
2018-03-20T17:45:59.239Z,3.27
2018-03-20T17:48:27.490Z,1.47
2018-03-20T17:50:55.767Z,2.97
2018-03-20T17:53:24.046Z,5.03
2018-03-20T17:55:52.357Z,5.20
2018-03-20T17:58:20.588Z,4.67
2018-03-20T18:00:48.842Z,5.17
2018-03-20T18:03:17.139Z,4.23
2018-03-20T18:05:45.395Z,2.23
2018-03-20T18:08:13.649Z,3.37
2018-03-20T18:10:41.911Z,1.90
2018-03-20T18:13:10.259Z,2.30
2018-03-20T18:15:38.951Z,6.37
2018-03-20T18:18:07.206Z,4.00
2018-03-20T18:20:35.467Z,3.03
2018-03-20T18:23:03.790Z,4.87
2018-03-20T18:25:32.091Z,4.47
2018-03-20T18:28:00.374Z,5.37
2018-03-20T18:30:28.590Z,4.40
2018-03-20T18:32:56.861Z,3.20
2018-03-20T18:35:25.127Z,3.03
2018-03-20T18:37:53.392Z,3.50
2018-03-20T18:40:21.662Z,4.50
2018-03-20T18:42:49.929Z,2.93
2018-03-20T18:45:18.180Z,6.30
2018-03-20T18:47:46.459Z,2.17
2018-03-20T18:50:14.735Z,6.60
2018-03-20T18:52:43.016Z,3.57
2018-03-20T18:55:11.273Z,3.77
2018-03-20T18:57:39.524Z,2.73
2018-03-20T19:00:07.825Z,3.07
2018-03-20T19:02:36.111Z,5.40
2018-03-20T19:05:04.378Z,3.50
2018-03-20T19:07:32.635Z,2.40
2018-03-20T19:10:00.905Z,2.00
2018-03-20T19:12:29.167Z,1.63
2018-03-20T19:14:57.426Z,3.97
2018-03-20T19:17:25.704Z,2.47
2018-03-20T19:19:53.962Z,3.67
2018-03-20T19:22:24.226Z,3.33
2018-03-20T19:24:52.490Z,4.13
2018-03-20T19:27:20.805Z,2.10
2018-03-20T19:29:49.088Z,5.63
2018-03-20T19:32:17.343Z,3.53
2018-03-20T19:34:45.598Z,6.40
2018-03-20T19:37:14.206Z,2.97
2018-03-20T19:39:42.471Z,6.63
2018-03-20T19:42:10.734Z,11.13
2018-03-20T19:44:39.011Z,10.90
2018-03-20T19:47:07.276Z,32.23
2018-03-20T19:49:35.550Z,24.00
2018-03-20T19:52:04.064Z,20.60
2018-03-20T19:54:32.331Z,20.30
2018-03-20T19:57:00.610Z,20.13
2018-03-20T19:59:29.211Z,12.20
2018-03-20T20:01:57.484Z,11.03
2018-03-20T20:04:25.743Z,8.77
2018-03-20T20:06:54.011Z,9.57
2018-03-20T20:09:22.284Z,8.83
2018-03-20T20:11:50.555Z,6.00
2018-03-20T20:14:18.831Z,8.00
2018-03-20T20:16:47.079Z,5.67
2018-03-20T20:19:15.342Z,4.53
2018-03-20T20:21:43.598Z,7.30
2018-03-20T20:24:11.878Z,3.57
2018-03-20T20:26:41.088Z,5.77
2018-03-20T20:29:09.338Z,3.50
2018-03-20T20:31:37.607Z,2.67
2018-03-20T20:34:05.862Z,3.13
2018-03-20T20:36:34.134Z,6.77
2018-03-20T20:39:02.392Z,4.53
2018-03-20T20:41:30.671Z,7.20
2018-03-20T20:43:58.941Z,3.50
2018-03-20T20:46:27.203Z,4.03
2018-03-20T20:48:55.813Z,3.73
2018-03-20T20:51:24.079Z,4.93
2018-03-20T20:53:52.351Z,3.83
2018-03-20T20:56:20.616Z,2.87
2018-03-20T20:58:48.892Z,4.17
2018-03-20T21:01:19.174Z,4.87
2018-03-20T21:03:47.434Z,4.83
2018-03-20T21:06:15.690Z,5.00
2018-03-20T21:08:43.951Z,3.97
2018-03-20T21:11:18.946Z,3.87
2018-03-20T21:13:47.223Z,3.77
2018-03-20T21:16:15.483Z,3.60
2018-03-20T21:18:43.736Z,3.70
2018-03-20T21:21:12.955Z,5.37
2018-03-20T21:23:41.211Z,4.57
2018-03-20T21:26:09.478Z,4.13
2018-03-20T21:28:37.738Z,3.50
2018-03-20T21:31:05.999Z,8.67
2018-03-20T21:33:34.310Z,3.77
2018-03-20T21:36:02.576Z,7.50
2018-03-20T21:38:30.847Z,4.63
2018-03-20T21:40:59.106Z,5.43
2018-03-20T21:43:27.360Z,7.37
2018-03-20T21:45:55.623Z,7.73
2018-03-20T21:48:23.903Z,6.57
2018-03-20T21:50:52.179Z,5.37
2018-03-20T21:53:20.442Z,8.77
2018-03-20T21:55:48.719Z,5.37
2018-03-20T21:58:17.006Z,5.80
2018-03-20T22:00:45.247Z,7.60
2018-03-20T22:03:13.562Z,7.17
2018-03-20T22:05:41.822Z,9.00
2018-03-20T22:08:10.118Z,7.67
2018-03-20T22:10:38.374Z,7.10
2018-03-20T22:13:06.645Z,10.57
2018-03-20T22:15:35.834Z,7.50
2018-03-20T22:18:04.087Z,3.80
2018-03-20T22:20:32.354Z,7.53
2018-03-20T22:23:00.607Z,5.43
2018-03-20T22:25:28.874Z,10.07
2018-03-20T22:27:57.155Z,5.30
2018-03-20T22:30:25.418Z,4.97
2018-03-20T22:32:53.675Z,5.93
2018-03-20T22:35:25.623Z,11.30
2018-03-20T22:37:53.885Z,6.50
2018-03-20T22:40:22.151Z,7.57
2018-03-20T22:42:50.411Z,7.30
2018-03-20T22:45:18.681Z,5.83
2018-03-20T22:47:46.943Z,7.10
2018-03-20T22:50:15.243Z,7.40
2018-03-20T22:52:43.503Z,5.77
2018-03-20T22:55:11.762Z,7.33
2018-03-20T22:57:40.028Z,9.03
2018-03-20T23:00:08.307Z,10.90
2018-03-20T23:02:36.571Z,11.27
2018-03-20T23:05:04.866Z,5.90
2018-03-20T23:07:33.143Z,6.33
2018-03-20T23:10:01.405Z,7.10
2018-03-20T23:12:29.674Z,6.73
2018-03-20T23:14:57.948Z,5.00
2018-03-20T23:17:26.235Z,4.80
2018-03-20T23:19:54.494Z,7.40
2018-03-20T23:22:22.766Z,6.50
2018-03-20T23:24:51.032Z,5.97
2018-03-20T23:27:19.284Z,7.90
2018-03-20T23:29:47.556Z,7.20
2018-03-20T23:32:15.819Z,7.03
2018-03-20T23:34:44.075Z,6.33
2018-03-20T23:37:12.339Z,5.17
2018-03-20T23:39:40.599Z,4.97
2018-03-20T23:42:08.883Z,4.87
2018-03-20T23:44:37.147Z,6.33
2018-03-20T23:47:05.415Z,5.30
2018-03-20T23:49:33.695Z,5.20
2018-03-20T23:52:01.951Z,3.67
2018-03-20T23:54:30.226Z,6.63
2018-03-20T23:56:58.488Z,4.27
2018-03-20T23:59:26.738Z,3.50
